createdAt,value
2019-04-19T00:00:40.958Z,1010.56
2019-04-19T00:01:47.362Z,1010.53
2019-04-19T00:02:43.537Z,1010.56
2019-04-19T00:03:39.068Z,1010.52
2019-04-19T00:04:39.314Z,1010.57
2019-04-19T00:05:37.785Z,1010.52
2019-04-19T00:06:36.341Z,1010.55
2019-04-19T00:07:32.083Z,1010.57
2019-04-19T00:08:42.543Z,1010.53
2019-04-19T00:09:41.286Z,1010.57
2019-04-19T00:10:36.005Z,1010.54
2019-04-19T00:11:33.215Z,1010.54
2019-04-19T00:12:34.830Z,1010.57
2019-04-19T00:13:23.863Z,1010.54
2019-04-19T00:14:23.059Z,1010.51
2019-04-19T00:15:20.579Z,1010.53
2019-04-19T00:16:19.505Z,1010.5
2019-04-19T00:17:22.760Z,1010.52
2019-04-19T00:18:18.160Z,1010.54
2019-04-19T00:19:32.837Z,1010.56
2019-04-19T00:20:31.166Z,1010.51
2019-04-19T00:21:27.073Z,1010.53
2019-04-19T00:22:26.339Z,1010.53
2019-04-19T00:23:18.624Z,1010.54
2019-04-19T00:24:08.214Z,1010.53
2019-04-19T00:25:07.783Z,1010.5
2019-04-19T00:26:06.128Z,1010.55
2019-04-19T00:27:04.053Z,1010.49
2019-04-19T00:28:03.918Z,1010.52
2019-04-19T00:29:05.081Z,1010.52
2019-04-19T00:30:13.851Z,1010.55
2019-04-19T00:31:13.966Z,1010.51
2019-04-19T00:32:11.529Z,1010.5
2019-04-19T00:33:08.822Z,1010.55
2019-04-19T00:33:56.272Z,1010.48
2019-04-19T00:34:52.688Z,1010.54
2019-04-19T00:35:51.669Z,1010.53
2019-04-19T00:36:50.956Z,1010.58
2019-04-19T00:37:51.075Z,1010.59
2019-04-19T00:38:57.066Z,1010.52
2019-04-19T00:40:05.747Z,1010.58
2019-04-19T00:41:02.984Z,1010.56
2019-04-19T00:42:04.736Z,1010.58
2019-04-19T00:42:52.395Z,1010.56
2019-04-19T00:43:53.270Z,1010.58
2019-04-19T00:44:56.536Z,1010.55
2019-04-19T00:45:57.961Z,1010.6
2019-04-19T00:46:58.243Z,1010.51
2019-04-19T00:47:47.113Z,1010.53
2019-04-19T00:48:45.723Z,1010.5
2019-04-19T00:49:37.571Z,1010.52
2019-04-19T00:50:46.826Z,1010.51
2019-04-19T00:51:42.941Z,1010.48
2019-04-19T00:52:41.898Z,1010.46
2019-04-19T00:53:34.572Z,1010.47
2019-04-19T00:54:31.910Z,1010.49
2019-04-19T00:55:31.533Z,1010.47
2019-04-19T00:56:33.416Z,1010.49
2019-04-19T00:57:29.898Z,1010.44
2019-04-19T00:58:24.736Z,1010.5
2019-04-19T00:59:19.456Z,1010.44
2019-04-19T01:00:21.899Z,1010.51
2019-04-19T01:01:19.736Z,1010.46
2019-04-19T01:02:17.316Z,1010.52
2019-04-19T01:03:14.616Z,1010.5
2019-04-19T01:04:17.072Z,1010.44
2019-04-19T01:05:13.559Z,1010.52
2019-04-19T01:06:12.223Z,1010.51
2019-04-19T01:07:08.197Z,1010.46
2019-04-19T01:08:10.788Z,1010.53
2019-04-19T01:09:18.951Z,1010.52
2019-04-19T01:10:18.612Z,1010.48
2019-04-19T01:11:17.868Z,1010.5
2019-04-19T01:12:14.755Z,1010.51
2019-04-19T01:13:10.484Z,1010.47
2019-04-19T01:14:11.542Z,1010.5
2019-04-19T01:15:09.196Z,1010.42
2019-04-19T01:16:05.002Z,1010.49
2019-04-19T01:17:07.319Z,1010.51
2019-04-19T01:18:08.984Z,1010.51
2019-04-19T01:18:57.954Z,1010.48
2019-04-19T01:19:53.507Z,1010.47
2019-04-19T01:20:48.054Z,1010.45
2019-04-19T01:21:47.028Z,1010.47
2019-04-19T01:22:48.666Z,1010.49
2019-04-19T01:23:47.931Z,1010.53
2019-04-19T01:24:46.054Z,1010.49
2019-04-19T01:25:41.402Z,1010.49
2019-04-19T01:26:43.580Z,1010.48
2019-04-19T01:27:39.197Z,1010.52
2019-04-19T01:28:37.209Z,1010.49
2019-04-19T01:29:37.963Z,1010.48
2019-04-19T01:30:38.397Z,1010.46
2019-04-19T01:31:33.956Z,1010.51
2019-04-19T01:32:34.898Z,1010.48
2019-04-19T01:33:34.294Z,1010.47
2019-04-19T01:34:30.605Z,1010.51
2019-04-19T01:35:28.231Z,1010.45
2019-04-19T01:36:32.050Z,1010.5
2019-04-19T01:37:26.921Z,1010.48
2019-04-19T01:38:23.372Z,1010.51
2019-04-19T01:39:35.735Z,1010.51
2019-04-19T01:40:32.906Z,1010.56
2019-04-19T01:41:33.013Z,1010.59
2019-04-19T01:42:36.535Z,1010.6
2019-04-19T01:43:34.237Z,1010.6
2019-04-19T01:44:33.067Z,1010.6
2019-04-19T01:45:28.644Z,1010.63
2019-04-19T01:46:26.287Z,1010.66
2019-04-19T01:47:30.237Z,1010.64
2019-04-19T01:48:28.001Z,1010.69
2019-04-19T01:49:17.802Z,1010.69
2019-04-19T01:50:16.967Z,1010.66
2019-04-19T01:51:19.837Z,1010.62
2019-04-19T01:52:29.808Z,1010.68
2019-04-19T01:53:20.408Z,1010.66
2019-04-19T01:54:16.126Z,1010.72
2019-04-19T01:55:09.377Z,1010.69
2019-04-19T01:56:05.416Z,1010.73
2019-04-19T01:57:02.528Z,1010.74
2019-04-19T01:58:01.420Z,1010.77
2019-04-19T01:58:57.185Z,1010.77
2019-04-19T01:59:56.841Z,1010.78
2019-04-19T02:00:55.367Z,1010.81
2019-04-19T02:01:57.954Z,1010.78
2019-04-19T02:02:54.682Z,1010.79
2019-04-19T02:03:49.689Z,1010.76
2019-04-19T02:04:47.570Z,1010.73
2019-04-19T02:05:50.459Z,1010.78
2019-04-19T02:06:46.169Z,1010.76
2019-04-19T02:07:42.509Z,1010.78
2019-04-19T02:08:46.296Z,1010.76
2019-04-19T02:09:54.068Z,1010.83
2019-04-19T02:10:50.459Z,1010.8
2019-04-19T02:11:47.060Z,1010.81
2019-04-19T02:12:44.582Z,1010.79
2019-04-19T02:13:39.176Z,1010.83
2019-04-19T02:14:43.342Z,1010.81
2019-04-19T02:15:38.836Z,1010.77
2019-04-19T02:16:31.787Z,1010.79
2019-04-19T02:17:34.622Z,1010.81
2019-04-19T02:18:30.651Z,1010.8
2019-04-19T02:19:28.430Z,1010.79
2019-04-19T02:20:26.691Z,1010.87
2019-04-19T02:21:27.550Z,1010.86
2019-04-19T02:22:26.778Z,1010.88
2019-04-19T02:23:21.971Z,1010.89
2019-04-19T02:24:21.504Z,1010.88
2019-04-19T02:25:21.711Z,1010.84
2019-04-19T02:26:19.715Z,1010.87
2019-04-19T02:27:16.852Z,1010.86
2019-04-19T02:28:18.051Z,1010.87
2019-04-19T02:29:16.681Z,1010.87
2019-04-19T02:30:22.160Z,1010.96
2019-04-19T02:31:30.290Z,1010.9
2019-04-19T02:32:27.438Z,1010.97
2019-04-19T02:33:28.872Z,1011.01
2019-04-19T02:34:33.277Z,1010.95
2019-04-19T02:35:34.257Z,1010.99
2019-04-19T02:36:35.230Z,1010.97
2019-04-19T02:37:22.872Z,1010.94
2019-04-19T02:38:28.580Z,1010.98
2019-04-19T02:39:28.527Z,1010.97
2019-04-19T02:41:24.188Z,1011.01
2019-04-19T02:43:23.630Z,1011.02
2019-04-19T02:44:15.160Z,1011
2019-04-19T02:47:29.629Z,1011.03
2019-04-19T02:48:15.836Z,1011.03
2019-04-19T02:49:19.828Z,1011.07
2019-04-19T02:54:09.432Z,1011.15
2019-04-19T02:55:09.072Z,1011.15
2019-04-19T02:56:23.361Z,1011.13
2019-04-19T02:57:09.848Z,1011.14
2019-04-19T02:57:58.678Z,1011.16
2019-04-19T02:58:58.625Z,1011.15
2019-04-19T03:00:03.352Z,1011.12
2019-04-19T03:01:02.157Z,1011.12
2019-04-19T03:03:05.619Z,1011.17
2019-04-19T03:03:45.357Z,1011.21
2019-04-19T03:05:07.035Z,1011.17
2019-04-19T03:05:40.354Z,1011.22
2019-04-19T03:06:30.434Z,1011.2
2019-04-19T03:07:21.574Z,1011.22
2019-04-19T03:08:18.954Z,1011.2
2019-04-19T03:09:17.807Z,1011.24
2019-04-19T03:10:19.625Z,1011.24
2019-04-19T03:11:30.836Z,1011.24
2019-04-19T03:12:36.606Z,1011.27
2019-04-19T03:13:25.370Z,1011.22
2019-04-19T03:14:24.320Z,1011.26
2019-04-19T03:15:22.363Z,1011.28
2019-04-19T03:16:31.029Z,1011.28
2019-04-19T03:17:23.058Z,1011.33
2019-04-19T03:19:17.992Z,1011.28
2019-04-19T03:20:21.297Z,1011.34
2019-04-19T03:21:20.280Z,1011.32
2019-04-19T03:22:20.142Z,1011.36
2019-04-19T03:23:13.007Z,1011.35
2019-04-19T03:24:14.017Z,1011.31
2019-04-19T03:25:15.062Z,1011.32
2019-04-19T03:26:07.052Z,1011.34
2019-04-19T03:27:03.005Z,1011.29
2019-04-19T03:28:03.124Z,1011.33
2019-04-19T03:28:55.930Z,1011.37
2019-04-19T03:30:01.039Z,1011.4
2019-04-19T03:31:13.726Z,1011.41
2019-04-19T03:32:21.594Z,1011.38
2019-04-19T03:35:26.102Z,1011.41
2019-04-19T03:35:59.292Z,1011.4
2019-04-19T03:36:54.572Z,1011.43
2019-04-19T03:37:54.585Z,1011.45
2019-04-19T03:38:55.064Z,1011.46
2019-04-19T03:40:05.865Z,1011.48
2019-04-19T03:40:50.214Z,1011.54
2019-04-19T03:42:48.522Z,1011.54
2019-04-19T03:43:47.113Z,1011.56
2019-04-19T03:44:45.347Z,1011.56
2019-04-19T03:45:49.853Z,1011.54
2019-04-19T03:46:52.019Z,1011.6
2019-04-19T03:47:44.174Z,1011.58
2019-04-19T03:48:43.498Z,1011.62
2019-04-19T03:49:38.425Z,1011.61
2019-04-19T03:50:36.909Z,1011.61
2019-04-19T03:51:37.879Z,1011.62
2019-04-19T03:52:36.765Z,1011.65
2019-04-19T03:53:44.798Z,1011.65
2019-04-19T03:54:28.134Z,1011.66
2019-04-19T03:55:28.390Z,1011.67
2019-04-19T03:56:31.849Z,1011.68
2019-04-19T03:57:22.869Z,1011.65
2019-04-19T03:58:14.862Z,1011.67
2019-04-19T03:59:09.350Z,1011.68
2019-04-19T04:00:08.915Z,1011.68
2019-04-19T04:01:06.641Z,1011.65
2019-04-19T04:02:05.725Z,1011.65
2019-04-19T04:03:08.709Z,1011.73
2019-04-19T04:04:08.607Z,1011.69
2019-04-19T04:05:04.884Z,1011.72
2019-04-19T04:05:59.921Z,1011.7
2019-04-19T04:06:59.118Z,1011.71
2019-04-19T04:08:04.268Z,1011.7
2019-04-19T04:09:00.337Z,1011.75
2019-04-19T04:09:57.387Z,1011.79
2019-04-19T04:10:54.053Z,1011.76
2019-04-19T04:12:00.935Z,1011.74
2019-04-19T04:12:59.403Z,1011.74
2019-04-19T04:13:59.702Z,1011.78
2019-04-19T04:15:00.853Z,1011.76
2019-04-19T04:15:56.597Z,1011.76
2019-04-19T04:16:48.934Z,1011.75
2019-04-19T04:17:43.604Z,1011.81
2019-04-19T04:18:42.798Z,1011.79
2019-04-19T04:19:41.393Z,1011.77
2019-04-19T04:20:42.744Z,1011.85
2019-04-19T04:21:43.309Z,1011.87
2019-04-19T04:22:38.925Z,1011.88
2019-04-19T04:23:40.900Z,1011.86
2019-04-19T04:24:39.287Z,1011.9
2019-04-19T04:25:42.991Z,1011.85
2019-04-19T04:26:38.998Z,1011.91
2019-04-19T04:27:43.518Z,1011.93
2019-04-19T04:28:42.482Z,1011.93
2019-04-19T04:29:34.158Z,1011.93
2019-04-19T04:30:31.577Z,1011.95
2019-04-19T04:31:31.519Z,1012.01
2019-04-19T04:32:39.157Z,1011.98
2019-04-19T04:33:32.052Z,1012
2019-04-19T04:34:31.716Z,1011.99
2019-04-19T04:35:30.180Z,1011.98
2019-04-19T04:36:36.040Z,1011.98
2019-04-19T04:37:29.159Z,1012
2019-04-19T04:38:23.349Z,1011.97
2019-04-19T04:39:13.478Z,1012.03
2019-04-19T04:40:12.586Z,1012.03
2019-04-19T04:41:14.120Z,1012.01
2019-04-19T04:42:19.916Z,1012
2019-04-19T04:43:18.776Z,1012.01
2019-04-19T04:44:21.853Z,1011.98
2019-04-19T04:45:38.347Z,1012.03
2019-04-19T04:46:26.692Z,1012.05
2019-04-19T04:47:19.123Z,1012.06
2019-04-19T04:48:11.569Z,1012.04
2019-04-19T04:49:28.218Z,1012.05
2019-04-19T04:50:16.771Z,1012.05
2019-04-19T04:51:15.290Z,1012.08
2019-04-19T04:52:06.387Z,1012.09
2019-04-19T04:52:54.404Z,1012.1
2019-04-19T04:53:53.279Z,1012.07
2019-04-19T04:54:52.316Z,1012.13
2019-04-19T04:55:55.829Z,1012.11
2019-04-19T04:56:58.810Z,1012.09
2019-04-19T04:57:52.469Z,1012.1
2019-04-19T04:58:47.736Z,1012.16
2019-04-19T04:59:49.018Z,1012.12
2019-04-19T05:00:50.610Z,1012.09
2019-04-19T05:01:50.563Z,1012.12
2019-04-19T05:02:57.210Z,1012.15
2019-04-19T05:03:53.672Z,1012.14
2019-04-19T05:04:47.977Z,1012.14
2019-04-19T05:05:51.482Z,1012.19
2019-04-19T05:06:57.628Z,1012.15
2019-04-19T05:07:56.618Z,1012.15
2019-04-19T05:08:49.697Z,1012.18
2019-04-19T05:09:48.586Z,1012.16
2019-04-19T05:10:42.833Z,1012.21
2019-04-19T05:11:41.832Z,1012.24
2019-04-19T05:13:05.338Z,1012.26
2019-04-19T05:13:43.163Z,1012.25
2019-04-19T05:14:40.059Z,1012.28
2019-04-19T05:15:37.218Z,1012.3
2019-04-19T05:16:44.166Z,1012.33
2019-04-19T05:17:45.778Z,1012.34
2019-04-19T05:20:16.808Z,1012.43
2019-04-19T05:21:17.753Z,1012.41
2019-04-19T05:22:14.697Z,1012.42
2019-04-19T05:23:13.829Z,1012.42
2019-04-19T05:24:14.799Z,1012.47
2019-04-19T05:25:18.961Z,1012.45
2019-04-19T05:26:22.864Z,1012.43
2019-04-19T05:27:14.605Z,1012.44
2019-04-19T05:28:07.033Z,1012.49
2019-04-19T05:29:02.842Z,1012.48
2019-04-19T05:29:50.940Z,1012.51
2019-04-19T05:30:53.707Z,1012.51
2019-04-19T05:31:49.453Z,1012.49
2019-04-19T05:32:46.090Z,1012.47
2019-04-19T05:33:51.283Z,1012.52
2019-04-19T05:34:54.607Z,1012.47
2019-04-19T05:35:56.706Z,1012.52
2019-04-19T05:36:54.366Z,1012.48
2019-04-19T05:37:55.231Z,1012.52
2019-04-19T05:39:54.123Z,1012.49
2019-04-19T05:40:42.818Z,1012.56
2019-04-19T05:41:47.507Z,1012.51
2019-04-19T05:42:44.507Z,1012.5
2019-04-19T05:45:13.940Z,1012.52
2019-04-19T05:45:51.369Z,1012.55
2019-04-19T05:46:45.726Z,1012.61
2019-04-19T05:47:33.123Z,1012.56
2019-04-19T05:48:33.171Z,1012.58
2019-04-19T05:49:37.669Z,1012.57
2019-04-19T05:50:35.517Z,1012.6
2019-04-19T05:51:38.462Z,1012.58
2019-04-19T05:52:33.991Z,1012.62
2019-04-19T05:53:25.038Z,1012.64
2019-04-19T05:54:15.664Z,1012.63
2019-04-19T05:55:13.173Z,1012.61
2019-04-19T05:56:11.576Z,1012.69
2019-04-19T05:57:30.755Z,1012.65
2019-04-19T05:58:16.252Z,1012.66
2019-04-19T05:59:14.607Z,1012.61
2019-04-19T06:00:20.326Z,1012.65
2019-04-19T06:01:23.414Z,1012.58
2019-04-19T06:02:15.429Z,1012.62
2019-04-19T06:03:08.894Z,1012.62
2019-04-19T06:04:16.690Z,1012.62
2019-04-19T06:05:20.095Z,1012.65
2019-04-19T06:06:19.438Z,1012.65
2019-04-19T06:07:11.975Z,1012.63
2019-04-19T06:08:04.998Z,1012.59
2019-04-19T06:08:53.962Z,1012.59
2019-04-19T06:09:51.942Z,1012.59
2019-04-19T06:10:54.803Z,1012.66
2019-04-19T06:11:49.738Z,1012.63
2019-04-19T06:12:49.466Z,1012.62
2019-04-19T06:16:42.571Z,1012.61
2019-04-19T06:17:43.047Z,1012.66
2019-04-19T06:18:34.975Z,1012.62
2019-04-19T06:19:34.896Z,1012.7
2019-04-19T06:23:23.462Z,1012.68
2019-04-19T06:24:21.476Z,1012.72
2019-04-19T06:25:17.581Z,1012.7
2019-04-19T06:27:24.878Z,1012.76
2019-04-19T06:28:22.365Z,1012.76
2019-04-19T06:29:14.487Z,1012.73
2019-04-19T06:30:14.569Z,1012.81
2019-04-19T06:31:16.628Z,1012.85
2019-04-19T06:32:14.994Z,1012.77
2019-04-19T06:33:10.616Z,1012.74
2019-04-19T06:34:08.654Z,1012.81
2019-04-19T06:35:01.227Z,1012.84
2019-04-19T06:35:51.851Z,1012.76
2019-04-19T06:36:56.207Z,1012.76
2019-04-19T06:37:43.848Z,1012.78
2019-04-19T06:38:42.225Z,1012.74
2019-04-19T06:39:41.536Z,1012.81
2019-04-19T06:40:43.540Z,1012.82
2019-04-19T06:41:44.583Z,1012.79
2019-04-19T06:42:46.056Z,1012.88
2019-04-19T06:43:49.180Z,1012.81
2019-04-19T06:44:50.192Z,1012.83
2019-04-19T06:45:49.008Z,1012.9
2019-04-19T06:46:42.083Z,1012.85
2019-04-19T06:47:36.057Z,1012.87
2019-04-19T06:48:32.020Z,1012.88
2019-04-19T06:49:29.247Z,1012.85
2019-04-19T06:50:32.045Z,1013
2019-04-19T06:51:31.233Z,1012.98
2019-04-19T06:52:26.932Z,1012.95
2019-04-19T06:53:21.088Z,1012.9
2019-04-19T06:54:27.169Z,1012.9
2019-04-19T06:55:24.679Z,1012.93
2019-04-19T06:56:24.829Z,1012.92
2019-04-19T06:57:23.662Z,1012.94
2019-04-19T06:58:20.762Z,1012.99
2019-04-19T06:59:19.955Z,1012.93
2019-04-19T07:00:22.293Z,1012.9
2019-04-19T07:01:21.304Z,1012.94
2019-04-19T07:02:09.251Z,1012.93
2019-04-19T07:03:09.295Z,1012.87
2019-04-19T07:04:06.197Z,1012.94
2019-04-19T07:05:18.285Z,1012.89
2019-04-19T07:06:19.391Z,1012.9
2019-04-19T07:07:21.704Z,1012.87
2019-04-19T07:08:42.550Z,1012.89
2019-04-19T07:10:24.698Z,1012.91
2019-04-19T07:11:15.964Z,1012.91
2019-04-19T07:12:18.165Z,1012.85
2019-04-19T07:13:09.436Z,1012.91
2019-04-19T07:14:01.434Z,1012.93
2019-04-19T07:15:06.358Z,1012.9
2019-04-19T07:16:12.915Z,1012.92
2019-04-19T07:17:05.412Z,1012.93
2019-04-19T07:19:49.698Z,1012.97
2019-04-19T07:20:42.166Z,1012.88
2019-04-19T07:21:42.072Z,1012.98
2019-04-19T07:22:41.122Z,1013.01
2019-04-19T07:23:43.401Z,1012.91
2019-04-19T07:24:44.101Z,1012.89
2019-04-19T07:47:33.740Z,1013.17
2019-04-19T07:48:24.526Z,1013.24
2019-04-19T07:49:20.907Z,1013.16
2019-04-19T07:50:24.740Z,1013.26
2019-04-19T07:51:23.938Z,1013.2
2019-04-19T07:53:58.971Z,1013.28
2019-04-19T07:55:00.870Z,1013.25
2019-04-19T07:56:04.028Z,1013.25
2019-04-19T07:59:31.721Z,1013.32
2019-04-19T08:27:27.814Z,1013.47
2019-04-19T08:28:27.829Z,1013.56
2019-04-19T08:29:29.710Z,1013.52
2019-04-19T08:30:25.355Z,1013.52
2019-04-19T08:31:19.387Z,1013.53
2019-04-19T08:32:17.318Z,1013.54
2019-04-19T08:33:15.213Z,1013.52
2019-04-19T08:34:17.569Z,1013.54
2019-04-19T08:35:15.501Z,1013.48
2019-04-19T08:36:12.820Z,1013.54
2019-04-19T08:37:18.603Z,1013.54
2019-04-19T08:38:13.822Z,1013.57
2019-04-19T08:39:24.644Z,1013.54
2019-04-19T08:40:26.188Z,1013.53
2019-04-19T08:41:13.462Z,1013.5
2019-04-19T08:42:20.299Z,1013.52
2019-04-19T08:43:20.862Z,1013.47
2019-04-19T08:44:17.877Z,1013.54
2019-04-19T08:45:04.810Z,1013.56
2019-04-19T08:45:58.703Z,1013.6
2019-04-19T08:46:57.685Z,1013.57
2019-04-19T08:48:02.420Z,1013.6
2019-04-19T08:48:57.471Z,1013.57
2019-04-19T08:49:53.338Z,1013.68
2019-04-19T08:50:54.945Z,1013.56
2019-04-19T08:51:50.599Z,1013.64
2019-04-19T08:52:54.224Z,1013.6
2019-04-19T08:53:59.112Z,1013.53
2019-04-19T08:55:03.156Z,1013.57
2019-04-19T08:55:59.247Z,1013.65
2019-04-19T08:56:53.235Z,1013.62
2019-04-19T08:57:49.419Z,1013.61
2019-04-19T08:58:54.224Z,1013.6
2019-04-19T08:59:58.962Z,1013.6
2019-04-19T09:01:13.665Z,1013.63
2019-04-19T09:01:55.631Z,1013.63
2019-04-19T09:02:48.628Z,1013.56
2019-04-19T09:03:51.004Z,1013.58
2019-04-19T09:04:49.319Z,1013.51
2019-04-19T09:05:54.532Z,1013.52
2019-04-19T09:07:29.469Z,1013.53
2019-04-19T09:07:53.393Z,1013.58
2019-04-19T09:08:40.630Z,1013.6
2019-04-19T09:09:50.340Z,1013.54
2019-04-19T09:10:51.861Z,1013.6
2019-04-19T09:11:38.689Z,1013.6
2019-04-19T09:12:39.619Z,1013.53
2019-04-19T09:13:37.547Z,1013.56
2019-04-19T09:14:39.346Z,1013.6
2019-04-19T09:15:32.632Z,1013.61
2019-04-19T09:16:29.785Z,1013.59
2019-04-19T09:17:38.415Z,1013.57
2019-04-19T09:18:38.712Z,1013.63
2019-04-19T09:19:43.419Z,1013.64
2019-04-19T09:20:27.845Z,1013.61
2019-04-19T09:21:21.356Z,1013.59
2019-04-19T09:22:22.760Z,1013.55
2019-04-19T09:23:20.769Z,1013.6
2019-04-19T09:24:09.809Z,1013.62
2019-04-19T09:25:09.864Z,1013.58
2019-04-19T09:26:14.771Z,1013.56
2019-04-19T09:27:17.758Z,1013.57
2019-04-19T09:28:30.625Z,1013.56
2019-04-19T09:29:23.821Z,1013.59
2019-04-19T09:30:16.088Z,1013.59
2019-04-19T09:31:12.967Z,1013.62
2019-04-19T09:32:03.426Z,1013.55
2019-04-19T09:32:53.246Z,1013.58
2019-04-19T09:33:54.354Z,1013.56
2019-04-19T09:34:57.338Z,1013.58
2019-04-19T09:35:56.562Z,1013.57
2019-04-19T09:36:58.100Z,1013.52
2019-04-19T09:37:55.387Z,1013.55
2019-04-19T09:39:00.487Z,1013.56
2019-04-19T09:39:52.175Z,1013.57
2019-04-19T09:40:49.967Z,1013.6
2019-04-19T09:41:46.029Z,1013.58
2019-04-19T09:42:50.577Z,1013.51
2019-04-19T09:45:19.162Z,1013.6
2019-04-19T09:46:18.913Z,1013.59
2019-04-19T09:47:16.533Z,1013.49
2019-04-19T09:48:36.235Z,1013.53
2019-04-19T09:49:25.326Z,1013.54
2019-04-19T09:50:30.125Z,1013.58
2019-04-19T09:51:27.757Z,1013.58
2019-04-19T09:52:31.453Z,1013.54
2019-04-19T09:53:35.450Z,1013.52
2019-04-19T09:54:25.255Z,1013.49
2019-04-19T09:55:26.502Z,1013.51
2019-04-19T09:56:22.377Z,1013.52
2019-04-19T09:57:23.603Z,1013.52
2019-04-19T09:58:20.719Z,1013.56
2019-04-19T09:59:08.857Z,1013.52
2019-04-19T10:00:06.365Z,1013.48
2019-04-19T10:00:58.269Z,1013.45
2019-04-19T10:02:00.466Z,1013.52
2019-04-19T10:02:58.866Z,1013.46
2019-04-19T10:03:57.798Z,1013.49
2019-04-19T10:04:52.745Z,1013.46
2019-04-19T10:05:50.739Z,1013.45
2019-04-19T10:06:49.121Z,1013.44
2019-04-19T10:07:48.212Z,1013.47
2019-04-19T10:08:46.264Z,1013.44
2019-04-19T10:09:47.006Z,1013.42
2019-04-19T10:10:45.402Z,1013.47
2019-04-19T10:11:43.203Z,1013.43
2019-04-19T10:12:40.980Z,1013.44
2019-04-19T10:17:02.943Z,1013.41
2019-04-19T10:18:02.752Z,1013.43
2019-04-19T10:21:56.741Z,1013.4
2019-04-19T10:22:58.260Z,1013.36
2019-04-19T10:44:23.993Z,1013.35
2019-04-19T10:45:20.623Z,1013.3
2019-04-19T10:46:19.156Z,1013.39
2019-04-19T10:47:18.698Z,1013.33
2019-04-19T10:48:16.298Z,1013.41
2019-04-19T10:49:21.174Z,1013.31
2019-04-19T10:50:26.941Z,1013.3
2019-04-19T10:51:12.321Z,1013.23
2019-04-19T10:52:10.858Z,1013.22
2019-04-19T10:53:10.337Z,1013.25
2019-04-19T10:54:08.553Z,1013.25
2019-04-19T10:55:06.724Z,1013.18
2019-04-19T10:56:05.251Z,1013.19
2019-04-19T10:57:04.128Z,1013.22
2019-04-19T10:58:03.235Z,1013.14
2019-04-19T10:59:00.887Z,1013.16
2019-04-19T11:00:00.887Z,1013.24
2019-04-19T11:00:58.482Z,1013.17
2019-04-19T11:01:57.754Z,1013.19
2019-04-19T11:02:56.851Z,1013.16
2019-04-19T11:03:54.972Z,1013.17
2019-04-19T11:04:53.110Z,1013.21
2019-04-19T11:05:52.585Z,1013.18
2019-04-19T11:06:51.376Z,1013.15
2019-04-19T11:07:49.531Z,1013.14
2019-04-19T11:08:48.745Z,1013.24
2019-04-19T11:09:46.432Z,1013.28
2019-04-19T11:10:45.435Z,1013.19
2019-04-19T11:11:43.581Z,1013.22
2019-04-19T11:12:42.881Z,1013.13
2019-04-19T11:15:22.473Z,1013.13
2019-04-19T11:16:21.467Z,1013.2
2019-04-19T11:17:20.007Z,1013.07
2019-04-19T11:18:19.494Z,1013.08
2019-04-19T11:19:23.603Z,1013.28
2019-04-19T11:20:25.849Z,1013.15
2019-04-19T11:21:14.109Z,1013.15
2019-04-19T11:22:13.859Z,1013.08
2019-04-19T11:23:11.442Z,1013.02
2019-04-19T11:24:10.096Z,1013.14
2019-04-19T11:25:08.635Z,1013.12
2019-04-19T11:26:07.254Z,1013.1
2019-04-19T11:27:06.754Z,1013.1
2019-04-19T11:28:04.965Z,1013.09
2019-04-19T11:29:03.806Z,1013.06
2019-04-19T11:30:01.758Z,1013.1
2019-04-19T11:31:00.337Z,1013.06
2019-04-19T11:31:59.759Z,1013.04
2019-04-19T11:32:58.899Z,1013.06
2019-04-19T11:33:57.200Z,1013.09
2019-04-19T11:34:55.609Z,1013.06
2019-04-19T11:35:55.086Z,1013.01
2019-04-19T11:36:53.571Z,1013
2019-04-19T11:37:51.073Z,1013.02
2019-04-19T11:38:49.858Z,1013.01
2019-04-19T11:39:48.760Z,1013.01
2019-04-19T11:40:47.414Z,1012.97
2019-04-19T11:41:46.305Z,1013
2019-04-19T11:42:45.569Z,1012.96
2019-04-19T11:43:43.361Z,1013.05
2019-04-19T11:44:41.960Z,1013.01
2019-04-19T11:45:41.791Z,1013.06
2019-04-19T11:46:40.124Z,1013.07
2019-04-19T11:47:39.351Z,1013.05
2019-04-19T11:48:37.575Z,1013.02
2019-04-19T11:49:39.235Z,1013.02
2019-04-19T11:50:35.756Z,1013.02
2019-04-19T11:51:33.875Z,1013.09
2019-04-19T11:52:31.982Z,1013.02
2019-04-19T11:53:30.259Z,1013
2019-04-19T11:54:28.741Z,1013.03
2019-04-19T11:55:28.529Z,1013.13
2019-04-19T11:56:27.579Z,1012.99
2019-04-19T11:57:24.630Z,1013.03
2019-04-19T11:58:24.228Z,1013.03
2019-04-19T11:59:34.004Z,1013.03
2019-04-19T12:00:21.704Z,1012.98
2019-04-19T12:01:19.174Z,1013.08
2019-04-19T12:02:20.710Z,1012.97
2019-04-19T12:03:18.020Z,1012.96
2019-04-19T12:04:16.287Z,1012.98
2019-04-19T12:05:20.938Z,1012.99
2019-04-19T12:06:14.185Z,1013.11
2019-04-19T12:07:12.502Z,1013
2019-04-19T12:08:10.596Z,1013
2019-04-19T12:09:08.926Z,1012.99
2019-04-19T12:10:08.279Z,1013.04
2019-04-19T12:11:06.526Z,1012.97
2019-04-19T12:12:05.375Z,1012.99
2019-04-19T12:13:03.799Z,1013
2019-04-19T12:14:03.771Z,1012.97
2019-04-19T12:15:02.300Z,1013.04
2019-04-19T12:16:01.016Z,1012.97
2019-04-19T12:16:59.289Z,1012.98
2019-04-19T12:17:57.903Z,1012.96
2019-04-19T12:18:55.898Z,1013
2019-04-19T12:19:59.075Z,1012.94
2019-04-19T12:20:53.348Z,1012.86
2019-04-19T12:21:53.666Z,1012.89
2019-04-19T12:22:51.491Z,1012.9
2019-04-19T12:23:49.136Z,1013.08
2019-04-19T12:24:50.853Z,1012.99
2019-04-19T12:25:47.761Z,1012.96
2019-04-19T12:26:45.336Z,1012.96
2019-04-19T12:27:43.951Z,1012.91
2019-04-19T12:28:43.698Z,1012.89
2019-04-19T12:29:44.902Z,1012.91
2019-04-19T12:30:45.062Z,1012.9
2019-04-19T12:31:39.145Z,1012.88
2019-04-19T12:32:37.374Z,1012.88
2019-04-19T12:33:35.436Z,1012.9
2019-04-19T12:34:34.881Z,1012.9
2019-04-19T12:35:32.696Z,1012.93
2019-04-19T12:36:31.266Z,1012.87
2019-04-19T12:37:31.118Z,1012.85
2019-04-19T12:38:28.686Z,1012.9
2019-04-19T12:39:27.341Z,1012.91
2019-04-19T12:40:25.867Z,1012.96
2019-04-19T12:41:24.476Z,1012.91
2019-04-19T12:42:24.026Z,1012.97
2019-04-19T12:43:22.204Z,1012.94
2019-04-19T12:44:20.920Z,1013.02
2019-04-19T12:45:19.843Z,1012.94
2019-04-19T12:46:18.990Z,1012.89
2019-04-19T12:47:17.111Z,1012.86
2019-04-19T12:48:14.897Z,1012.88
2019-04-19T12:49:14.363Z,1012.82
2019-04-19T12:50:13.415Z,1012.9
2019-04-19T12:51:12.076Z,1012.85
2019-04-19T12:52:10.169Z,1012.87
2019-04-19T12:53:08.164Z,1012.81
2019-04-19T12:54:07.789Z,1012.86
2019-04-19T12:55:05.988Z,1012.83
2019-04-19T12:56:04.210Z,1012.86
2019-04-19T12:57:03.485Z,1012.87
2019-04-19T12:58:01.857Z,1012.89
2019-04-19T12:59:00.039Z,1012.82
2019-04-19T13:00:00.022Z,1012.84
2019-04-19T13:00:57.451Z,1012.8
2019-04-19T13:01:57.688Z,1012.8
2019-04-19T13:02:55.921Z,1012.83
2019-04-19T13:03:54.717Z,1012.85
2019-04-19T13:04:52.607Z,1012.86
2019-04-19T13:05:51.386Z,1012.78
2019-04-19T13:06:50.388Z,1012.88
2019-04-19T13:07:49.284Z,1012.9
2019-04-19T13:08:47.830Z,1012.76
2019-04-19T13:09:46.837Z,1012.81
2019-04-19T13:10:44.923Z,1012.78
2019-04-19T13:11:43.325Z,1012.79
2019-04-19T13:12:43.933Z,1012.66
2019-04-19T13:13:41.607Z,1012.72
2019-04-19T13:14:39.786Z,1012.92
2019-04-19T13:15:38.569Z,1012.68
2019-04-19T13:16:36.888Z,1012.68
2019-04-19T13:17:36.029Z,1012.72
2019-04-19T13:18:34.313Z,1012.7
2019-04-19T13:19:33.285Z,1012.71
2019-04-19T13:20:33.859Z,1012.67
2019-04-19T13:21:30.177Z,1012.71
2019-04-19T13:22:28.746Z,1012.61
2019-04-19T13:23:28.354Z,1012.67
2019-04-19T13:24:26.634Z,1012.74
2019-04-19T13:25:24.465Z,1012.66
2019-04-19T13:26:23.170Z,1012.63
2019-04-19T13:27:21.719Z,1012.64
2019-04-19T13:28:21.534Z,1012.6
2019-04-19T13:29:19.700Z,1012.63
2019-04-19T13:30:25.394Z,1012.56
2019-04-19T13:31:16.640Z,1012.6
2019-04-19T13:32:15.512Z,1012.57
2019-04-19T13:33:14.447Z,1012.56
2019-04-19T13:34:13.421Z,1012.68
2019-04-19T13:35:11.136Z,1012.59
2019-04-19T13:36:11.090Z,1012.56
2019-04-19T13:37:09.212Z,1012.53
2019-04-19T13:38:07.420Z,1012.46
2019-04-19T13:39:06.810Z,1012.53
2019-04-19T13:40:04.466Z,1012.48
2019-04-19T13:41:03.000Z,1012.55
2019-04-19T13:42:03.113Z,1012.56